Time;durP1;ratioP1;P1;durP2;ratioP2;P2;SDS_P1;SDS_P2;PMS_P1;PMS_P2;Temp;Humidity;BMP_temperature;BMP_pressure;BME280_temperature;BME280_humidity;BME280_pressure;Samples;Min_cycle;Max_cycle;Signal;HPM_P1;HPM_P2
2023/06/05 00:01:37;;;;;;;5.13;2.10;;;18.60;62.40;;;;;;5116051;28;20040;-76
2023/06/05 00:04:04;;;;;;;3.90;2.60;;;18.50;62.50;;;;;;5116003;28;20036;-76
2023/06/05 00:06:31;;;;;;;5.15;2.33;;;18.50;62.80;;;;;;5116941;28;20051;-76
2023/06/05 00:08:57;;;;;;;4.28;2.20;;;18.50;63.00;;;;;;5115905;28;20096;-75
2023/06/05 00:11:23;;;;;;;3.92;2.20;;;18.40;62.90;;;;;;5116900;28;20051;-75
2023/06/05 00:13:49;;;;;;;3.95;2.30;;;18.30;63.10;;;;;;5116797;28;20091;-75
2023/06/05 00:16:15;;;;;;;3.92;2.50;;;18.30;63.20;;;;;;5115680;28;20085;-75
2023/06/05 00:18:43;;;;;;;6.00;2.30;;;18.30;63.20;;;;;;5115742;28;20028;-76
2023/06/05 00:21:09;;;;;;;4.18;2.22;;;18.30;63.30;;;;;;5116646;28;20024;-76
2023/06/05 00:23:35;;;;;;;7.00;2.92;;;18.30;63.30;;;;;;5115508;28;20048;-75
2023/06/05 00:26:01;;;;;;;3.85;2.22;;;18.20;63.50;;;;;;5115622;28;20054;-75
2023/06/05 00:28:27;;;;;;;4.80;2.33;;;18.20;63.50;;;;;;5116502;28;20051;-75
2023/06/05 00:30:52;;;;;;;4.85;2.35;;;18.20;63.60;;;;;;5116399;28;20032;-75
2023/06/05 00:33:18;;;;;;;3.67;2.42;;;18.20;63.70;;;;;;5116334;28;20043;-76
2023/06/05 00:35:43;;;;;;;3.67;2.28;;;18.20;63.90;;;;;;5116370;28;20046;-75
2023/06/05 00:38:09;;;;;;;3.75;2.28;;;18.10;64.00;;;;;;5114919;28;20028;-75
2023/06/05 00:40:35;;;;;;;6.63;2.72;;;18.10;64.00;;;;;;5115140;28;20036;-75
2023/06/05 00:43:00;;;;;;;6.32;2.78;;;18.00;64.20;;;;;;5116246;28;20035;-75
2023/06/05 00:45:26;;;;;;;5.22;2.78;;;18.00;64.40;;;;;;5098363;28;20042;-76
2023/06/05 00:47:52;;;;;;;4.88;2.78;;;18.00;64.70;;;;;;5116134;28;20032;-75
2023/06/05 00:50:21;;;;;;;5.60;2.90;;;17.90;64.70;;;;;;5115994;28;20032;-75
2023/06/05 00:52:47;;;;;;;5.85;2.70;;;17.90;64.80;;;;;;5116030;28;20112;-75
2023/06/05 00:55:13;;;;;;;5.60;2.38;;;17.80;65.10;;;;;;5115055;28;20016;-75
2023/06/05 00:57:39;;;;;;;4.45;2.42;;;17.80;65.30;;;;;;5115933;28;20024;-75
2023/06/05 01:00:09;;;;;;;5.53;3.15;;;17.70;65.40;;;;;;5114876;28;20028;-75
2023/06/05 01:02:37;;;;;;;5.50;2.85;;;17.70;65.60;;;;;;5115866;28;20055;-75
2023/06/05 01:05:03;;;;;;;4.53;2.63;;;17.60;65.90;;;;;;5115786;28;20036;-75
2023/06/05 01:07:32;;;;;;;6.82;2.63;;;17.60;65.90;;;;;;5114839;28;20052;-75
2023/06/05 01:10:03;;;;;;;6.72;3.05;;;17.50;66.20;;;;;;5115649;28;20028;-75
2023/06/05 01:12:47;;;;;;;5.25;2.78;;;17.50;66.30;;;;;;5115713;28;20020;-75
2023/06/05 01:15:15;;;;;;;3.75;2.60;;;17.50;66.20;;;;;;5114578;28;20050;-75
2023/06/05 01:17:45;;;;;;;4.78;2.53;;;17.50;67.10;;;;;;5115735;28;20031;-75
2023/06/05 01:20:11;;;;;;;4.28;3.10;;;17.50;66.30;;;;;;5114500;28;20507;-75
2023/06/05 01:22:40;;;;;;;6.03;3.30;;;17.50;66.30;;;;;;5097360;28;20032;-75
2023/06/05 01:25:07;;;;;;;7.25;3.30;;;17.40;66.50;;;;;;5114529;28;20055;-75
2023/06/05 01:28:00;;;;;;;6.47;3.40;;;17.40;66.70;;;;;;5114338;28;20050;-75
2023/06/05 01:30:52;;;;;;;;;;;17.40;66.60;;;;;;5115711;28;20106;-75
2023/06/05 01:33:43;;;;;;;5.00;3.35;;;17.30;67.00;;;;;;5107586;28;19911;-76
2023/06/05 01:36:11;;;;;;;6.72;3.05;;;17.20;67.40;;;;;;5115271;28;20024;-75
2023/06/05 01:38:38;;;;;;;6.15;3.30;;;17.10;67.70;;;;;;5115148;28;20084;-75
2023/06/05 01:41:05;;;;;;;5.72;3.10;;;17.10;67.80;;;;;;5115113;28;20016;-75
2023/06/05 01:43:32;;;;;;;7.10;3.47;;;17.10;68.00;;;;;;5114107;28;20016;-76
2023/06/05 01:45:59;;;;;;;5.55;3.08;;;17.00;68.20;;;;;;5113972;28;20081;-75
2023/06/05 01:48:30;;;;;;;7.07;3.50;;;17.10;68.10;;;;;;5115001;28;20050;-75
2023/06/05 01:51:02;;;;;;;5.38;3.33;;;17.10;68.90;;;;;;5113001;28;20024;-75
2023/06/05 01:53:28;;;;;;;5.90;3.00;;;17.10;68.20;;;;;;5113940;28;20035;-75
2023/06/05 01:55:58;;;;;;;4.70;3.00;;;17.00;68.30;;;;;;5114822;28;20030;-75
2023/06/05 01:58:25;;;;;;;7.30;3.40;;;17.00;68.40;;;;;;5113883;28;20028;-75
2023/06/05 02:00:52;;;;;;;5.75;3.70;;;17.00;68.40;;;;;;5114704;28;20031;-75
2023/06/05 02:03:18;;;;;;;5.80;3.10;;;17.00;68.50;;;;;;5114688;28;20027;-75
2023/06/05 02:05:44;;;;;;;6.07;3.47;;;16.90;68.70;;;;;;5114647;28;20031;-75
2023/06/05 02:08:10;;;;;;;5.93;3.42;;;16.90;69.00;;;;;;5114604;28;20016;-75
2023/06/05 02:10:42;;;;;;;5.15;3.58;;;16.90;68.90;;;;;;5114573;28;20024;-75
2023/06/05 02:13:08;;;;;;;5.28;3.17;;;16.90;69.00;;;;;;5113675;28;20024;-75
2023/06/05 02:15:35;;;;;;;6.28;3.50;;;16.90;68.90;;;;;;5114489;28;20103;-75
2023/06/05 02:18:02;;;;;;;6.07;3.58;;;16.90;68.90;;;;;;5114434;28;20027;-75
2023/06/05 02:20:28;;;;;;;5.18;3.28;;;16.90;68.90;;;;;;5114369;28;20087;-75
2023/06/05 02:22:54;;;;;;;5.15;2.90;;;16.80;68.90;;;;;;5114133;28;20048;-75
2023/06/05 02:25:21;;;;;;;6.82;3.60;;;16.80;68.90;;;;;;5114288;28;20028;-75
2023/06/05 02:27:47;;;;;;;5.95;3.42;;;16.80;69.30;;;;;;5114238;28;20024;-75
2023/06/05 02:30:13;;;;;;;6.28;3.53;;;16.70;69.40;;;;;;5114091;28;20054;-75
2023/06/05 02:32:43;;;;;;;7.63;3.90;;;16.60;69.50;;;;;;5113255;28;20088;-75
2023/06/05 02:35:12;;;;;;;8.23;3.63;;;16.60;69.80;;;;;;5114072;28;20532;-76
2023/06/05 02:37:43;;;;;;;6.82;3.45;;;16.60;69.70;;;;;;5114089;28;20050;-75
2023/06/05 02:40:13;;;;;;;8.05;3.60;;;16.60;69.70;;;;;;5114189;28;20084;-75
2023/06/05 02:42:39;;;;;;;5.88;3.67;;;16.60;69.80;;;;;;5114059;28;20028;-75
2023/06/05 02:45:05;;;;;;;5.65;3.55;;;16.60;69.80;;;;;;5113959;28;20388;-75
2023/06/05 02:47:31;;;;;;;6.70;3.80;;;16.50;69.90;;;;;;5113881;28;20089;-75
2023/06/05 02:49:57;;;;;;;6.55;3.67;;;16.50;69.90;;;;;;5113799;28;20031;-75
2023/06/05 02:52:24;;;;;;;5.80;3.67;;;16.40;70.10;;;;;;5113604;28;20016;-75
2023/06/05 02:54:50;;;;;;;7.55;3.90;;;16.40;70.40;;;;;;5113818;28;20067;-75
2023/06/05 02:57:17;;;;;;;5.90;3.55;;;16.40;70.60;;;;;;5112835;28;20039;-75
2023/06/05 02:59:43;;;;;;;7.18;3.53;;;16.30;70.80;;;;;;5112723;28;20024;-75
2023/06/05 03:02:09;;;;;;;7.85;3.95;;;16.30;70.90;;;;;;5113519;28;20024;-75
2023/06/05 03:04:35;;;;;;;8.02;3.72;;;16.30;70.80;;;;;;5112759;28;20107;-75
2023/06/05 03:07:03;;;;;;;7.07;4.30;;;16.30;71.00;;;;;;5113634;28;20035;-75
2023/06/05 03:09:32;;;;;;;6.82;3.63;;;16.30;70.80;;;;;;5113513;28;20035;-75
2023/06/05 03:11:58;;;;;;;7.80;3.80;;;16.20;70.80;;;;;;5112736;28;20458;-75
2023/06/05 03:14:26;;;;;;;6.22;3.63;;;16.10;71.10;;;;;;5112635;28;20099;-75
2023/06/05 03:16:53;;;;;;;7.80;4.60;;;16.10;71.30;;;;;;5112599;28;20435;-75
2023/06/05 03:19:19;;;;;;;5.97;3.63;;;16.10;71.30;;;;;;5113520;28;20028;-76
2023/06/05 03:21:45;;;;;;;9.02;3.95;;;16.10;71.20;;;;;;5112584;28;20028;-76
2023/06/05 03:24:15;;;;;;;7.07;3.80;;;16.10;71.20;;;;;;5113301;28;20040;-75
2023/06/05 03:26:41;;;;;;;8.07;4.18;;;16.10;71.20;;;;;;5112630;28;20033;-75
2023/06/05 03:29:08;;;;;;;6.60;3.70;;;16.10;71.30;;;;;;5113344;28;20054;-75
2023/06/05 03:31:35;;;;;;;5.85;3.78;;;16.10;71.50;;;;;;5113405;28;20030;-75
2023/06/05 03:34:02;;;;;;;6.38;3.90;;;16.10;71.40;;;;;;5112335;28;20034;-75
2023/06/05 03:36:28;;;;;;;8.10;4.18;;;16.00;71.40;;;;;;5113354;28;20020;-75
2023/06/05 03:38:56;;;;;;;6.65;3.85;;;16.00;71.50;;;;;;5113349;28;20028;-75
2023/06/05 03:41:23;;;;;;;7.38;4.10;;;16.00;71.70;;;;;;5113314;28;20032;-76
2023/06/05 03:43:52;;;;;;;7.35;4.05;;;15.90;71.50;;;;;;5112287;28;20058;-76
2023/06/05 03:46:18;;;;;;;6.80;4.05;;;15.90;71.80;;;;;;5113282;28;20035;-75
2023/06/05 03:48:58;;;;;;;10.52;4.45;;;15.80;72.10;;;;;;5113179;28;20046;-75
2023/06/05 03:51:27;;;;;;;8.00;4.30;;;15.90;72.20;;;;;;5112410;28;20020;-75
2023/06/05 03:53:54;;;;;;;8.30;3.95;;;15.80;72.20;;;;;;5113389;28;20036;-75
2023/06/05 03:56:21;;;;;;;10.13;4.55;;;15.80;72.20;;;;;;5113359;28;20016;-75
2023/06/05 03:58:48;;;;;;;8.25;4.40;;;15.80;72.10;;;;;;5113148;28;20013;-75
2023/06/05 04:01:14;;;;;;;7.07;3.80;;;15.80;72.20;;;;;;5112308;28;20503;-75
2023/06/05 04:03:40;;;;;;;8.95;4.30;;;15.80;72.40;;;;;;5112176;28;20036;-75
2023/06/05 04:06:06;;;;;;;8.25;4.43;;;15.70;72.60;;;;;;5113114;28;20017;-75
2023/06/05 04:08:32;;;;;;;8.85;4.20;;;15.70;72.80;;;;;;5113061;28;20086;-75
2023/06/05 04:10:58;;;;;;;9.20;4.85;;;15.70;72.80;;;;;;5112094;28;20028;-75
2023/06/05 04:13:24;;;;;;;8.63;4.53;;;15.80;72.70;;;;;;5113196;28;20118;-75
2023/06/05 04:15:50;;;;;;;10.35;4.53;;;15.80;73.00;;;;;;5115699;28;20016;-75
2023/06/05 04:18:16;;;;;;;8.10;4.45;;;15.70;72.90;;;;;;5115677;28;20042;-75
2023/06/05 04:20:41;;;;;;;9.52;4.65;;;15.70;72.90;;;;;;5116675;28;20038;-75
2023/06/05 04:23:07;;;;;;;9.70;4.15;;;15.70;73.00;;;;;;5115491;28;20056;-75
2023/06/05 04:25:32;;;;;;;6.45;4.38;;;15.60;73.00;;;;;;5116721;28;20036;-75
2023/06/05 04:27:59;;;;;;;7.00;4.35;;;15.70;73.20;;;;;;5116532;28;20036;-75
2023/06/05 04:30:25;;;;;;;8.15;4.35;;;15.60;73.20;;;;;;5116444;28;20087;-75
2023/06/05 04:32:54;;;;;;;9.85;4.47;;;15.60;73.30;;;;;;5116603;28;20020;-75
2023/06/05 04:35:21;;;;;;;10.50;4.85;;;15.60;73.40;;;;;;5116344;28;20016;-75
2023/06/05 04:37:47;;;;;;;8.20;4.50;;;15.70;73.50;;;;;;5116370;28;20027;-75
2023/06/05 04:40:12;;;;;;;9.43;4.72;;;15.70;73.40;;;;;;5115432;28;20028;-75
2023/06/05 04:42:38;;;;;;;9.45;4.57;;;15.70;73.30;;;;;;5098315;28;20050;-75
2023/06/05 04:45:07;;;;;;;9.48;5.35;;;15.70;73.50;;;;;;5116368;28;20028;-76
2023/06/05 04:47:33;;;;;;;9.15;4.47;;;15.70;73.60;;;;;;5116144;28;20023;-75
2023/06/05 04:50:03;;;;;;;7.72;4.43;;;15.70;73.70;;;;;;5114983;28;20024;-76
2023/06/05 04:52:30;;;;;;;10.15;4.97;;;15.70;73.80;;;;;;5116090;28;20095;-75
2023/06/05 04:54:56;;;;;;;8.13;4.38;;;15.70;73.80;;;;;;5114986;28;20020;-76
2023/06/05 04:57:24;;;;;;;8.57;4.45;;;15.70;73.70;;;;;;5115982;28;20051;-76
2023/06/05 04:59:50;;;;;;;9.50;4.68;;;15.70;73.60;;;;;;5114937;28;20055;-75
2023/06/05 05:02:16;;;;;;;9.55;4.63;;;15.70;73.60;;;;;;5114854;28;20020;-75
2023/06/05 05:04:42;;;;;;;8.23;4.55;;;15.70;73.70;;;;;;5114899;28;20036;-75
2023/06/05 05:07:13;;;;;;;8.77;4.68;;;15.70;73.60;;;;;;5115831;28;20054;-75
2023/06/05 05:09:39;;;;;;;10.32;4.82;;;15.70;73.60;;;;;;5114795;28;20035;-75
2023/06/05 05:12:04;;;;;;;8.93;4.60;;;15.70;73.70;;;;;;5114721;28;20012;-75
2023/06/05 05:14:30;;;;;;;10.00;4.60;;;15.70;73.80;;;;;;5115618;28;20387;-75
2023/06/05 05:16:56;;;;;;;9.77;5.43;;;15.70;73.60;;;;;;5115624;28;20036;-75
2023/06/05 05:19:24;;;;;;;10.52;4.75;;;15.80;73.70;;;;;;5115624;28;20047;-76
2023/06/05 05:21:50;;;;;;;10.90;4.53;;;15.80;73.80;;;;;;5114457;28;20039;-76
2023/06/05 05:24:16;;;;;;;11.57;5.00;;;15.80;73.70;;;;;;5115205;28;20052;-75
2023/06/05 05:26:41;;;;;;;9.40;4.80;;;15.80;73.50;;;;;;5115385;28;20056;-76
2023/06/05 05:29:07;;;;;;;11.65;4.68;;;15.80;73.60;;;;;;5115385;28;20028;-75
2023/06/05 05:31:33;;;;;;;9.68;4.65;;;15.80;73.50;;;;;;5115340;28;20027;-75
2023/06/05 05:33:59;;;;;;;10.57;5.13;;;15.80;73.60;;;;;;5115184;28;20020;-76
2023/06/05 05:36:28;;;;;;;11.05;5.13;;;15.90;73.80;;;;;;5114271;28;20095;-75
2023/06/05 05:38:54;;;;;;;8.82;4.78;;;15.90;73.80;;;;;;5115232;28;20033;-75
2023/06/05 05:41:21;;;;;;;10.60;5.13;;;15.90;73.50;;;;;;5115116;28;20034;-76
2023/06/05 05:43:46;;;;;;;8.48;4.38;;;15.90;73.60;;;;;;5114136;28;20048;-75
2023/06/05 05:46:12;;;;;;;9.98;5.25;;;15.90;74.30;;;;;;5115122;28;20029;-75
2023/06/05 05:48:38;;;;;;;9.60;5.13;;;15.90;73.40;;;;;;5114990;28;20050;-75
2023/06/05 05:51:05;;;;;;;10.88;5.53;;;15.90;73.60;;;;;;5114844;28;20114;-75
2023/06/05 05:53:31;;;;;;;10.35;4.88;;;16.00;73.40;;;;;;5114824;28;20047;-76
2023/06/05 05:55:57;;;;;;;10.63;5.35;;;16.00;73.30;;;;;;5114832;28;20020;-75
2023/06/05 05:58:23;;;;;;;9.75;4.80;;;15.90;73.20;;;;;;5114794;28;20031;-76
2023/06/05 06:00:48;;;;;;;10.23;5.00;;;15.90;73.20;;;;;;5114749;28;20032;-75
2023/06/05 06:03:15;;;;;;;9.27;4.85;;;16.00;73.20;;;;;;5114688;28;20045;-76
2023/06/05 06:05:41;;;;;;;9.70;4.75;;;16.10;73.40;;;;;;5114620;28;20028;-76
2023/06/05 06:08:07;;;;;;;9.13;4.65;;;16.00;73.20;;;;;;5114614;28;20016;-75
2023/06/05 06:10:33;;;;;;;8.90;4.65;;;16.10;73.30;;;;;;5113562;28;20038;-76
2023/06/05 06:12:59;;;;;;;9.13;4.75;;;16.10;73.10;;;;;;5114525;28;20047;-76
2023/06/05 06:15:26;;;;;;;12.50;4.85;;;16.10;73.00;;;;;;5114508;28;20023;-76
2023/06/05 06:17:52;;;;;;;10.95;5.00;;;16.20;73.10;;;;;;5114398;28;20073;-77
2023/06/05 06:20:18;;;;;;;11.15;4.72;;;16.20;73.00;;;;;;5114344;28;20028;-77
2023/06/05 06:22:44;;;;;;;9.35;4.28;;;16.20;73.00;;;;;;5114197;28;20052;-75
2023/06/05 06:25:12;;;;;;;11.32;4.65;;;16.30;72.80;;;;;;5114470;28;20067;-76
2023/06/05 06:27:38;;;;;;;7.65;4.28;;;16.30;72.60;;;;;;5114255;28;20035;-76
2023/06/05 06:30:04;;;;;;;11.63;4.25;;;16.30;72.60;;;;;;5114126;28;20036;-75
2023/06/05 06:32:30;;;;;;;10.05;5.13;;;16.30;72.50;;;;;;5113144;28;20023;-76
2023/06/05 06:34:56;;;;;;;7.53;4.53;;;16.30;72.60;;;;;;5113871;28;20476;-76
2023/06/05 06:37:22;;;;;;;9.48;4.90;;;16.30;72.30;;;;;;5113600;28;20012;-76
2023/06/05 06:39:48;;;;;;;9.15;5.15;;;16.40;72.50;;;;;;5114033;28;20025;-76
2023/06/05 06:42:14;;;;;;;8.07;4.32;;;16.40;72.60;;;;;;5113231;28;20024;-76
2023/06/05 06:44:40;;;;;;;7.88;4.75;;;16.50;72.60;;;;;;5113987;28;20054;-76
2023/06/05 06:47:07;;;;;;;9.43;4.68;;;16.50;72.90;;;;;;5114021;28;20020;-76
2023/06/05 06:49:34;;;;;;;11.05;4.70;;;16.50;72.80;;;;;;5112817;28;20024;-76
2023/06/05 06:52:00;;;;;;;9.15;4.38;;;16.50;72.60;;;;;;5113046;28;20093;-76
2023/06/05 06:54:28;;;;;;;8.00;4.53;;;16.50;72.80;;;;;;5113827;28;20024;-76
2023/06/05 06:56:56;;;;;;;9.48;4.50;;;16.60;72.60;;;;;;5113831;28;20020;-76
2023/06/05 06:59:22;;;;;;;7.93;4.40;;;16.70;72.70;;;;;;5112806;28;20426;-76
2023/06/05 07:02:17;;;;;;;7.85;4.50;;;16.70;72.80;;;;;;5113706;28;20083;-76
2023/06/05 07:04:44;;;;;;;7.05;4.43;;;16.80;72.70;;;;;;5113784;28;20035;-77
2023/06/05 07:07:12;;;;;;;10.57;4.72;;;16.70;72.50;;;;;;5112572;28;20028;-76
2023/06/05 07:09:42;;;;;;;9.18;4.80;;;16.80;72.50;;;;;;5113541;28;20051;-75
2023/06/05 07:12:15;;;;;;;8.98;5.10;;;16.80;72.50;;;;;;5113715;28;20518;-76
2023/06/05 07:14:41;;;;;;;10.40;4.75;;;16.90;72.70;;;;;;5113589;28;20036;-76
2023/06/05 07:17:07;;;;;;;9.45;4.63;;;16.90;72.60;;;;;;5113567;28;20091;-76
2023/06/05 07:19:36;;;;;;;11.23;5.25;;;17.00;72.40;;;;;;5113573;28;20506;-76
2023/06/05 07:22:04;;;;;;;9.68;4.72;;;17.00;72.50;;;;;;5113522;28;20090;-76
2023/06/05 07:24:30;;;;;;;8.55;4.65;;;17.00;72.60;;;;;;5113307;28;20039;-76
2023/06/05 07:26:58;;;;;;;11.55;5.20;;;17.10;72.40;;;;;;5113610;28;20020;-76
2023/06/05 07:29:24;;;;;;;9.73;5.20;;;17.10;72.10;;;;;;5113356;28;20024;-76
2023/06/05 07:31:54;;;;;;;10.25;5.22;;;17.10;72.20;;;;;;5113376;28;20031;-77
2023/06/05 07:34:21;;;;;;;9.95;5.03;;;17.10;72.80;;;;;;5112495;28;20052;-76
2023/06/05 07:36:49;;;;;;;9.27;4.82;;;17.20;72.70;;;;;;5112331;28;20016;-76
2023/06/05 07:39:16;;;;;;;10.88;5.07;;;17.30;72.80;;;;;;5113371;28;20059;-77
2023/06/05 07:41:42;;;;;;;9.20;4.53;;;17.30;73.00;;;;;;5113353;28;20467;-76
2023/06/05 07:44:12;;;;;;;9.98;5.28;;;17.40;72.40;;;;;;5112287;28;20073;-77
2023/06/05 07:46:42;;;;;;;11.38;5.50;;;17.50;72.50;;;;;;5113288;28;20028;-77
2023/06/05 07:49:09;;;;;;;10.48;4.70;;;17.50;72.50;;;;;;5114632;28;20024;-77
2023/06/05 07:51:38;;;;;;;9.77;5.03;;;17.60;72.30;;;;;;5116347;28;20063;-77
2023/06/05 07:54:08;;;;;;;7.28;4.32;;;17.70;72.40;;;;;;5116284;28;20020;-78
2023/06/05 07:56:34;;;;;;;8.93;5.15;;;17.80;72.00;;;;;;5117215;28;20110;-77
2023/06/05 07:59:02;;;;;;;10.82;5.25;;;17.90;72.00;;;;;;5117121;28;20058;-78
2023/06/05 08:01:29;;;;;;;8.63;4.65;;;17.90;71.50;;;;;;5117081;28;20028;-78
2023/06/05 08:03:55;;;;;;;9.98;5.07;;;18.00;71.90;;;;;;5117104;28;20019;-78
2023/06/05 08:06:21;;;;;;;8.93;5.00;;;18.00;71.60;;;;;;5115963;28;20066;-78
2023/06/05 08:08:46;;;;;;;9.25;5.50;;;18.10;70.90;;;;;;5115957;28;20021;-78
2023/06/05 08:11:12;;;;;;;11.15;5.88;;;18.10;71.00;;;;;;5116864;28;20031;-77
2023/06/05 08:13:38;;;;;;;9.02;4.53;;;18.10;70.80;;;;;;5115845;28;20472;-78
2023/06/05 08:16:05;;;;;;;11.23;5.07;;;18.10;71.00;;;;;;5116814;28;20039;-77
2023/06/05 08:18:30;;;;;;;12.73;5.65;;;18.20;71.10;;;;;;5116755;28;20016;-77
2023/06/05 08:20:56;;;;;;;10.90;4.85;;;18.20;70.80;;;;;;5116715;28;20083;-77
2023/06/05 08:23:22;;;;;;;10.38;5.50;;;18.30;71.40;;;;;;5115394;28;20054;-77
2023/06/05 08:25:48;;;;;;;9.00;5.00;;;18.40;71.20;;;;;;5115587;28;20110;-77
2023/06/05 08:28:17;;;;;;;9.18;4.35;;;18.40;70.90;;;;;;5116596;28;20024;-77
2023/06/05 08:30:44;;;;;;;11.98;5.53;;;18.40;70.50;;;;;;5116576;28;20040;-77
2023/06/05 08:33:09;;;;;;;9.52;4.88;;;18.50;70.10;;;;;;5115602;28;20027;-77
2023/06/05 08:35:35;;;;;;;10.77;4.97;;;18.50;70.70;;;;;;5115394;28;20044;-77
2023/06/05 08:38:03;;;;;;;10.70;5.65;;;18.60;70.30;;;;;;5115578;28;20044;-77
2023/06/05 08:40:29;;;;;;;8.60;5.03;;;18.60;70.60;;;;;;5116357;28;20032;-77
2023/06/05 08:42:55;;;;;;;8.48;5.38;;;18.70;70.20;;;;;;5116308;28;20020;-76
2023/06/05 08:45:21;;;;;;;11.65;5.65;;;18.70;69.60;;;;;;5115477;28;20045;-77
2023/06/05 08:47:51;;;;;;;10.48;4.95;;;18.70;70.10;;;;;;5115375;28;20437;-77
2023/06/05 08:50:17;;;;;;;8.70;4.78;;;18.80;69.90;;;;;;5115218;28;20016;-76
2023/06/05 08:52:45;;;;;;;12.07;5.00;;;18.90;69.70;;;;;;5116150;28;20031;-76
2023/06/05 08:55:11;;;;;;;10.63;5.00;;;18.90;69.40;;;;;;5115031;28;20027;-76
2023/06/05 08:57:41;;;;;;;8.20;4.30;;;19.00;70.90;;;;;;5116026;28;20024;-76
2023/06/05 09:00:10;;;;;;;11.60;4.85;;;19.00;69.70;;;;;;5114627;28;20032;-76
2023/06/05 09:02:43;;;;;;;10.45;4.93;;;19.10;69.90;;;;;;5098255;28;20500;-75
2023/06/05 09:05:09;;;;;;;9.45;5.57;;;19.20;69.20;;;;;;5115089;28;20067;-76
2023/06/05 09:07:39;;;;;;;11.20;4.78;;;19.20;68.70;;;;;;5115851;28;20032;-76
2023/06/05 09:10:06;;;;;;;12.65;4.93;;;19.30;69.00;;;;;;5115749;28;20028;-76
2023/06/05 09:12:51;;;;;;;8.82;4.90;;;19.40;68.80;;;;;;5115556;28;20051;-76
2023/06/05 09:15:30;;;;;;;11.40;5.70;;;19.50;69.00;;;;;;5114905;28;20048;-76
2023/06/05 09:18:15;;;;;;;12.88;5.40;;;19.60;68.10;;;;;;5115666;28;20017;-76
2023/06/05 09:20:45;;;;;;;9.43;5.35;;;19.60;67.90;;;;;;5115573;28;20012;-75
2023/06/05 09:23:24;;;;;;;8.35;4.35;;;19.70;68.40;;;;;;5114336;28;20058;-75
2023/06/05 09:25:50;;;;;;;7.90;5.05;;;19.80;68.40;;;;;;5115505;28;20032;-76
2023/06/05 09:28:17;;;;;;;8.30;4.75;;;19.90;67.80;;;;;;5114386;28;20024;-75
2023/06/05 09:31:02;;;;;;;8.70;4.82;;;19.90;67.00;;;;;;5115278;28;20123;-75
2023/06/05 09:33:35;;;;;;;9.25;4.60;;;20.00;67.00;;;;;;5115269;28;20024;-75
2023/06/05 09:36:07;;;;;;;7.50;4.80;;;20.00;67.00;;;;;;5115284;28;20028;-75
2023/06/05 09:38:34;;;;;;;7.88;3.92;;;20.00;67.20;;;;;;5115229;28;20031;-75
2023/06/05 09:41:10;;;;;;;7.53;4.03;;;20.10;67.60;;;;;;5115180;28;20020;-76
2023/06/05 09:43:39;;;;;;;7.07;4.32;;;20.20;67.90;;;;;;5114059;28;20027;-76
2023/06/05 09:46:12;;;;;;;7.63;4.50;;;20.30;66.10;;;;;;5097572;28;20020;-75
2023/06/05 09:48:45;;;;;;;8.68;4.32;;;20.40;66.20;;;;;;5114012;28;20039;-76
2023/06/05 09:51:17;;;;;;;6.50;4.07;;;20.50;66.40;;;;;;5113878;28;20035;-76
2023/06/05 09:53:45;;;;;;;7.38;4.82;;;20.60;66.40;;;;;;5114961;28;20020;-76
2023/06/05 09:56:16;;;;;;;8.48;4.60;;;20.60;66.20;;;;;;5114839;28;20026;-76
2023/06/05 09:58:50;;;;;;;9.20;4.20;;;20.70;65.40;;;;;;5113922;28;20364;-76
2023/06/05 10:01:27;;;;;;;9.07;4.30;;;20.90;65.80;;;;;;5114762;28;20024;-76
2023/06/05 10:03:58;;;;;;;8.45;3.80;;;21.00;65.90;;;;;;5113837;28;20537;-75
2023/06/05 10:06:28;;;;;;;5.85;3.67;;;21.10;66.10;;;;;;5114728;28;20045;-75
2023/06/05 10:08:57;;;;;;;8.52;4.78;;;21.10;64.40;;;;;;5114709;28;20459;-76
2023/06/05 10:11:28;;;;;;;6.70;3.67;;;21.20;64.20;;;;;;5096272;28;20024;-75
2023/06/05 10:13:54;;;;;;;6.93;4.22;;;21.20;64.60;;;;;;5114569;28;20105;-76
2023/06/05 10:16:21;;;;;;;10.82;4.93;;;21.30;64.10;;;;;;5114464;28;20024;-76
2023/06/05 10:18:47;;;;;;;9.50;4.85;;;21.40;64.30;;;;;;5114503;28;20028;-76
2023/06/05 10:21:17;;;;;;;7.30;4.00;;;21.40;64.90;;;;;;5113530;28;20028;-76
2023/06/05 10:23:47;;;;;;;5.57;3.65;;;21.50;63.60;;;;;;5114093;28;20070;-76
2023/06/05 10:26:21;;;;;;;7.18;4.20;;;21.50;63.30;;;;;;5114503;28;20032;-76
2023/06/05 10:29:29;;;;;;;7.55;3.97;;;21.60;63.40;;;;;;5114274;28;20047;-76
2023/06/05 10:32:28;;;;;;;8.52;4.80;;;21.70;63.50;;;;;;5086720;28;20415;-76
2023/06/05 10:35:21;;;;;;;9.60;4.50;;;21.80;64.10;;;;;;5071667;28;20031;-77
2023/06/05 10:38:06;;;;;;;9.93;4.05;;;21.80;63.20;;;;;;5113198;28;20028;-76
2023/06/05 10:40:33;;;;;;;7.47;3.88;;;21.90;63.00;;;;;;5114101;28;20019;-77
2023/06/05 10:43:32;;;;;;;7.70;3.65;;;21.90;62.90;;;;;;5114044;28;20024;-77
2023/06/05 10:46:22;;;;;;;7.25;3.58;;;22.10;63.20;;;;;;5080220;28;20066;-76
2023/06/05 10:49:15;;;;;;;5.63;3.17;;;22.20;63.90;;;;;;5114030;28;20027;-76
2023/06/05 10:51:45;;;;;;;7.30;3.40;;;22.30;62.30;;;;;;5114084;28;20024;-76
2023/06/05 10:54:23;;;;;;;6.00;3.55;;;22.40;62.30;;;;;;5113911;28;20019;-76
2023/06/05 10:57:01;;;;;;;6.88;3.42;;;22.50;62.50;;;;;;5112955;28;20048;-77
2023/06/05 10:59:29;;;;;;;5.15;3.15;;;22.50;61.30;;;;;;5112822;28;20020;-77
2023/06/05 11:02:08;;;;;;;8.63;3.70;;;22.60;61.30;;;;;;5112813;28;20032;-77
2023/06/05 11:04:49;;;;;;;6.65;3.60;;;22.70;60.80;;;;;;5113707;28;20024;-77
2023/06/05 11:07:22;;;;;;;7.35;3.90;;;22.70;60.40;;;;;;5112817;28;20050;-77
2023/06/05 11:10:04;;;;;;;6.38;3.67;;;22.70;60.30;;;;;;5112680;28;20059;-77
2023/06/05 11:12:42;;;;;;;6.47;3.47;;;22.80;59.10;;;;;;5112621;28;20016;-77
2023/06/05 11:15:09;;;;;;;5.60;3.50;;;22.80;60.30;;;;;;5112588;28;20028;-77
2023/06/05 11:17:42;;;;;;;8.15;3.22;;;22.80;59.10;;;;;;5113544;28;20039;-78
2023/06/05 11:20:24;;;;;;;6.15;3.60;;;22.80;57.70;;;;;;5113646;28;20058;-77
2023/06/05 11:22:53;;;;;;;4.95;3.50;;;22.80;58.20;;;;;;5115318;28;20088;-78
2023/06/05 11:25:20;;;;;;;6.95;3.50;;;22.90;59.40;;;;;;5120199;28;20091;-77
2023/06/05 11:27:48;;;;;;;5.80;3.25;;;23.00;59.40;;;;;;5119298;28;20024;-77
2023/06/05 11:30:16;;;;;;;4.20;2.90;;;23.10;59.40;;;;;;5118962;28;20043;-77
2023/06/05 11:32:42;;;;;;;6.60;3.03;;;23.20;59.20;;;;;;5119294;28;20421;-78
2023/06/05 11:35:11;;;;;;;6.32;3.08;;;23.40;58.80;;;;;;5120125;28;20050;-78
2023/06/05 11:37:38;;;;;;;5.65;3.42;;;23.40;58.20;;;;;;5119209;28;20044;-77
2023/06/05 11:40:08;;;;;;;7.05;3.38;;;23.40;57.60;;;;;;5120181;28;20031;-77
2023/06/05 11:42:34;;;;;;;5.32;3.55;;;23.50;57.80;;;;;;5120192;28;20020;-77
2023/06/05 11:45:00;;;;;;;6.43;3.30;;;23.60;56.30;;;;;;5119198;28;20039;-77
2023/06/05 11:47:30;;;;;;;6.90;3.15;;;23.60;57.00;;;;;;5120067;28;20028;-77
2023/06/05 11:50:09;;;;;;;8.02;3.83;;;23.60;57.80;;;;;;5119011;28;20119;-77
2023/06/05 11:52:36;;;;;;;5.88;3.67;;;23.70;56.50;;;;;;5120035;28;20024;-77
2023/06/05 11:55:21;;;;;;;5.97;3.40;;;23.80;57.20;;;;;;5119096;28;20026;-77
2023/06/05 11:57:48;;;;;;;6.93;3.00;;;23.80;56.00;;;;;;5119974;28;20032;-77
2023/06/05 12:00:16;;;;;;;7.10;3.05;;;23.80;55.40;;;;;;5118855;28;20024;-77
2023/06/05 12:02:43;;;;;;;4.40;2.90;;;23.90;55.70;;;;;;5119962;28;20032;-77
2023/06/05 12:05:09;;;;;;;5.45;3.33;;;23.90;55.10;;;;;;5119939;28;20024;-77
2023/06/05 12:07:39;;;;;;;6.32;2.83;;;24.00;55.30;;;;;;5118946;28;20088;-77
2023/06/05 12:10:10;;;;;;;6.32;3.53;;;24.10;56.10;;;;;;5119061;28;20020;-77
2023/06/05 12:12:52;;;;;;;6.03;3.28;;;24.20;55.60;;;;;;5120091;28;20046;-77
2023/06/05 12:15:20;;;;;;;5.10;2.78;;;24.20;53.80;;;;;;5119918;28;20031;-78
2023/06/05 12:17:53;;;;;;;5.53;3.08;;;24.20;54.40;;;;;;5119826;28;20080;-77
2023/06/05 12:20:20;;;;;;;5.50;2.83;;;24.30;54.30;;;;;;5118989;28;20036;-78
2023/06/05 12:22:46;;;;;;;4.65;2.40;;;24.30;54.40;;;;;;5118905;28;20047;-77
2023/06/05 12:25:19;;;;;;;6.05;2.60;;;24.50;53.50;;;;;;5118575;28;20040;-78
2023/06/05 12:27:45;;;;;;;3.92;2.28;;;24.50;52.90;;;;;;5102709;28;20032;-77
2023/06/05 12:30:12;;;;;;;4.30;2.75;;;24.50;50.50;;;;;;5118677;28;20035;-77
2023/06/05 12:32:43;;;;;;;6.55;2.80;;;24.60;48.60;;;;;;5118895;28;20053;-78
2023/06/05 12:35:22;;;;;;;4.37;2.60;;;24.60;49.80;;;;;;5116963;28;20083;-78
2023/06/05 12:37:51;;;;;;;3.78;2.70;;;24.70;50.20;;;;;;5116500;28;20016;-78
2023/06/05 12:40:22;;;;;;;5.65;2.42;;;24.70;49.30;;;;;;5115385;28;20028;-78
2023/06/05 12:42:48;;;;;;;8.23;2.53;;;24.80;48.40;;;;;;5115443;28;20080;-78
2023/06/05 12:45:15;;;;;;;4.82;2.10;;;24.80;49.10;;;;;;5115386;28;20082;-78
2023/06/05 12:47:42;;;;;;;4.63;2.60;;;24.90;49.10;;;;;;5116246;28;20028;-78
2023/06/05 12:50:11;;;;;;;4.20;2.05;;;25.00;48.90;;;;;;5115097;28;20020;-78
2023/06/05 12:52:38;;;;;;;4.82;2.20;;;25.00;46.80;;;;;;5115351;28;20028;-77
2023/06/05 12:55:05;;;;;;;3.92;2.25;;;25.00;46.70;;;;;;5098252;28;20024;-78